sensor_id;sensor_type;location;lat;lon;timestamp;P1;durP1;ratioP1;P2;durP2;ratioP2
10643;SDS011;5370;50.132;8.626;2024-02-16T00:00:00;9.70;;;6.17;;
10643;SDS011;5370;50.132;8.626;2024-02-16T00:02:26;9.90;;;6.20;;
10643;SDS011;5370;50.132;8.626;2024-02-16T00:04:52;11.30;;;5.27;;
10643;SDS011;5370;50.132;8.626;2024-02-16T00:07:17;10.20;;;5.33;;
10643;SDS011;5370;50.132;8.626;2024-02-16T00:09:43;11.57;;;5.87;;
10643;SDS011;5370;50.132;8.626;2024-02-16T00:12:08;11.33;;;5.47;;
10643;SDS011;5370;50.132;8.626;2024-02-16T00:14:36;7.90;;;5.37;;
10643;SDS011;5370;50.132;8.626;2024-02-16T00:17:01;14.33;;;6.07;;
10643;SDS011;5370;50.132;8.626;2024-02-16T00:19:28;14.37;;;6.57;;
10643;SDS011;5370;50.132;8.626;2024-02-16T00:21:54;11.13;;;5.97;;
10643;SDS011;5370;50.132;8.626;2024-02-16T00:24:20;7.50;;;5.03;;
10643;SDS011;5370;50.132;8.626;2024-02-16T00:26:46;7.73;;;4.93;;
10643;SDS011;5370;50.132;8.626;2024-02-16T00:29:12;7.73;;;5.43;;
10643;SDS011;5370;50.132;8.626;2024-02-16T00:31:37;8.40;;;6.30;;
10643;SDS011;5370;50.132;8.626;2024-02-16T00:34:03;14.80;;;6.43;;
10643;SDS011;5370;50.132;8.626;2024-02-16T00:36:32;10.77;;;5.00;;
10643;SDS011;5370;50.132;8.626;2024-02-16T00:38:59;16.17;;;6.10;;
10643;SDS011;5370;50.132;8.626;2024-02-16T00:41:24;12.27;;;5.40;;
10643;SDS011;5370;50.132;8.626;2024-02-16T00:43:51;11.67;;;5.83;;
10643;SDS011;5370;50.132;8.626;2024-02-16T00:46:20;11.73;;;6.40;;
10643;SDS011;5370;50.132;8.626;2024-02-16T00:48:47;11.63;;;5.57;;
10643;SDS011;5370;50.132;8.626;2024-02-16T00:51:16;10.63;;;5.67;;
10643;SDS011;5370;50.132;8.626;2024-02-16T00:53:42;23.43;;;6.30;;
10643;SDS011;5370;50.132;8.626;2024-02-16T00:56:07;14.50;;;7.00;;
10643;SDS011;5370;50.132;8.626;2024-02-16T00:58:34;7.00;;;5.83;;
10643;SDS011;5370;50.132;8.626;2024-02-16T01:01:00;12.50;;;6.50;;
10643;SDS011;5370;50.132;8.626;2024-02-16T01:03:25;12.00;;;5.80;;
10643;SDS011;5370;50.132;8.626;2024-02-16T01:05:54;13.70;;;6.47;;
10643;SDS011;5370;50.132;8.626;2024-02-16T01:08:19;15.67;;;7.50;;
10643;SDS011;5370;50.132;8.626;2024-02-16T01:10:45;19.30;;;10.27;;
10643;SDS011;5370;50.132;8.626;2024-02-16T01:13:12;13.43;;;7.80;;
10643;SDS011;5370;50.132;8.626;2024-02-16T01:15:37;10.10;;;6.27;;
10643;SDS011;5370;50.132;8.626;2024-02-16T01:18:04;14.30;;;7.33;;
10643;SDS011;5370;50.132;8.626;2024-02-16T01:20:32;10.60;;;6.30;;
10643;SDS011;5370;50.132;8.626;2024-02-16T01:22:58;15.03;;;7.60;;
10643;SDS011;5370;50.132;8.626;2024-02-16T01:25:23;11.00;;;5.93;;
10643;SDS011;5370;50.132;8.626;2024-02-16T01:27:49;9.53;;;5.30;;
10643;SDS011;5370;50.132;8.626;2024-02-16T01:30:14;19.03;;;9.93;;
10643;SDS011;5370;50.132;8.626;2024-02-16T01:32:40;14.10;;;7.27;;
10643;SDS011;5370;50.132;8.626;2024-02-16T01:35:06;11.83;;;6.87;;
10643;SDS011;5370;50.132;8.626;2024-02-16T01:37:36;12.37;;;6.83;;
10643;SDS011;5370;50.132;8.626;2024-02-16T01:40:04;12.47;;;6.83;;
10643;SDS011;5370;50.132;8.626;2024-02-16T01:42:33;17.30;;;5.83;;
10643;SDS011;5370;50.132;8.626;2024-02-16T01:44:59;10.67;;;5.73;;
10643;SDS011;5370;50.132;8.626;2024-02-16T01:47:25;11.13;;;5.90;;
10643;SDS011;5370;50.132;8.626;2024-02-16T01:49:51;9.80;;;5.20;;
10643;SDS011;5370;50.132;8.626;2024-02-16T01:52:16;7.47;;;5.10;;
10643;SDS011;5370;50.132;8.626;2024-02-16T01:54:42;10.00;;;6.03;;
10643;SDS011;5370;50.132;8.626;2024-02-16T01:57:08;11.63;;;5.97;;
10643;SDS011;5370;50.132;8.626;2024-02-16T01:59:35;11.73;;;6.17;;
10643;SDS011;5370;50.132;8.626;2024-02-16T02:02:03;10.67;;;6.00;;
10643;SDS011;5370;50.132;8.626;2024-02-16T02:04:29;8.27;;;6.07;;
10643;SDS011;5370;50.132;8.626;2024-02-16T02:06:55;9.63;;;5.93;;
10643;SDS011;5370;50.132;8.626;2024-02-16T02:09:20;11.87;;;5.67;;
10643;SDS011;5370;50.132;8.626;2024-02-16T02:11:46;8.90;;;5.43;;
10643;SDS011;5370;50.132;8.626;2024-02-16T02:14:11;11.40;;;5.73;;
10643;SDS011;5370;50.132;8.626;2024-02-16T02:16:37;8.40;;;5.07;;
10643;SDS011;5370;50.132;8.626;2024-02-16T02:19:02;10.70;;;5.80;;
10643;SDS011;5370;50.132;8.626;2024-02-16T02:21:28;11.93;;;5.63;;
10643;SDS011;5370;50.132;8.626;2024-02-16T02:23:53;12.10;;;6.07;;
10643;SDS011;5370;50.132;8.626;2024-02-16T02:26:19;9.27;;;6.07;;
10643;SDS011;5370;50.132;8.626;2024-02-16T02:28:46;16.03;;;5.90;;
10643;SDS011;5370;50.132;8.626;2024-02-16T02:31:11;8.97;;;5.90;;
10643;SDS011;5370;50.132;8.626;2024-02-16T02:33:37;8.33;;;5.07;;
10643;SDS011;5370;50.132;8.626;2024-02-16T02:36:03;9.03;;;5.73;;
10643;SDS011;5370;50.132;8.626;2024-02-16T02:38:29;11.17;;;7.80;;
10643;SDS011;5370;50.132;8.626;2024-02-16T02:40:55;10.80;;;6.23;;
10643;SDS011;5370;50.132;8.626;2024-02-16T02:43:21;14.63;;;6.10;;
10643;SDS011;5370;50.132;8.626;2024-02-16T02:45:48;11.40;;;6.33;;
10643;SDS011;5370;50.132;8.626;2024-02-16T02:48:13;9.57;;;6.43;;
10643;SDS011;5370;50.132;8.626;2024-02-16T02:50:39;13.60;;;5.70;;
10643;SDS011;5370;50.132;8.626;2024-02-16T02:53:04;41.23;;;26.67;;
10643;SDS011;5370;50.132;8.626;2024-02-16T02:55:30;60.83;;;38.10;;
10643;SDS011;5370;50.132;8.626;2024-02-16T02:57:56;21.60;;;12.90;;
10643;SDS011;5370;50.132;8.626;2024-02-16T03:00:23;54.83;;;38.50;;
10643;SDS011;5370;50.132;8.626;2024-02-16T03:02:48;29.43;;;20.20;;
10643;SDS011;5370;50.132;8.626;2024-02-16T03:05:14;18.23;;;12.63;;
10643;SDS011;5370;50.132;8.626;2024-02-16T03:07:39;33.70;;;22.30;;
10643;SDS011;5370;50.132;8.626;2024-02-16T03:10:05;29.47;;;19.50;;
10643;SDS011;5370;50.132;8.626;2024-02-16T03:12:34;20.73;;;10.90;;
10643;SDS011;5370;50.132;8.626;2024-02-16T03:14:59;13.03;;;6.73;;
10643;SDS011;5370;50.132;8.626;2024-02-16T03:17:25;17.47;;;9.97;;
10643;SDS011;5370;50.132;8.626;2024-02-16T03:19:51;14.20;;;8.03;;
10643;SDS011;5370;50.132;8.626;2024-02-16T03:22:16;17.87;;;8.40;;
10643;SDS011;5370;50.132;8.626;2024-02-16T03:24:43;12.10;;;6.53;;
10643;SDS011;5370;50.132;8.626;2024-02-16T03:27:10;10.53;;;6.53;;
10643;SDS011;5370;50.132;8.626;2024-02-16T03:29:35;11.83;;;7.17;;
10643;SDS011;5370;50.132;8.626;2024-02-16T03:32:01;11.60;;;6.90;;
10643;SDS011;5370;50.132;8.626;2024-02-16T03:34:27;13.23;;;6.70;;
10643;SDS011;5370;50.132;8.626;2024-02-16T03:36:52;12.10;;;6.30;;
10643;SDS011;5370;50.132;8.626;2024-02-16T03:39:19;13.67;;;6.20;;
10643;SDS011;5370;50.132;8.626;2024-02-16T03:41:45;11.40;;;6.00;;
10643;SDS011;5370;50.132;8.626;2024-02-16T03:44:14;10.30;;;5.77;;
10643;SDS011;5370;50.132;8.626;2024-02-16T03:46:41;12.20;;;5.97;;
10643;SDS011;5370;50.132;8.626;2024-02-16T03:49:08;8.83;;;5.93;;
10643;SDS011;5370;50.132;8.626;2024-02-16T03:51:33;10.03;;;5.13;;
10643;SDS011;5370;50.132;8.626;2024-02-16T03:53:59;15.03;;;5.40;;
10643;SDS011;5370;50.132;8.626;2024-02-16T03:56:24;10.10;;;5.30;;
10643;SDS011;5370;50.132;8.626;2024-02-16T03:58:50;9.17;;;5.60;;
10643;SDS011;5370;50.132;8.626;2024-02-16T04:01:15;7.93;;;4.70;;
10643;SDS011;5370;50.132;8.626;2024-02-16T04:03:41;11.43;;;5.53;;
10643;SDS011;5370;50.132;8.626;2024-02-16T04:06:07;12.80;;;5.30;;
10643;SDS011;5370;50.132;8.626;2024-02-16T04:08:34;6.67;;;4.53;;
10643;SDS011;5370;50.132;8.626;2024-02-16T04:10:59;9.37;;;5.43;;
10643;SDS011;5370;50.132;8.626;2024-02-16T04:13:25;13.07;;;5.20;;
10643;SDS011;5370;50.132;8.626;2024-02-16T04:15:51;13.23;;;5.57;;
10643;SDS011;5370;50.132;8.626;2024-02-16T04:18:16;11.87;;;5.40;;
10643;SDS011;5370;50.132;8.626;2024-02-16T04:20:43;8.37;;;5.70;;
10643;SDS011;5370;50.132;8.626;2024-02-16T04:23:09;8.13;;;4.87;;
10643;SDS011;5370;50.132;8.626;2024-02-16T04:25:34;12.73;;;5.70;;
10643;SDS011;5370;50.132;8.626;2024-02-16T04:28:00;7.17;;;4.37;;
10643;SDS011;5370;50.132;8.626;2024-02-16T04:30:25;8.73;;;4.97;;
10643;SDS011;5370;50.132;8.626;2024-02-16T04:32:51;8.83;;;5.03;;
10643;SDS011;5370;50.132;8.626;2024-02-16T04:35:17;9.57;;;3.97;;
10643;SDS011;5370;50.132;8.626;2024-02-16T04:37:43;8.47;;;4.30;;
10643;SDS011;5370;50.132;8.626;2024-02-16T04:40:08;9.07;;;4.90;;
10643;SDS011;5370;50.132;8.626;2024-02-16T04:42:37;9.90;;;4.60;;
10643;SDS011;5370;50.132;8.626;2024-02-16T04:45:03;9.30;;;4.57;;
10643;SDS011;5370;50.132;8.626;2024-02-16T04:47:29;9.40;;;4.60;;
10643;SDS011;5370;50.132;8.626;2024-02-16T04:49:54;8.83;;;4.93;;
10643;SDS011;5370;50.132;8.626;2024-02-16T04:52:20;7.73;;;4.30;;
10643;SDS011;5370;50.132;8.626;2024-02-16T04:54:45;13.00;;;4.20;;
10643;SDS011;5370;50.132;8.626;2024-02-16T04:57:11;7.57;;;4.50;;
10643;SDS011;5370;50.132;8.626;2024-02-16T04:59:36;7.50;;;5.07;;
10643;SDS011;5370;50.132;8.626;2024-02-16T05:02:02;8.13;;;4.40;;
10643;SDS011;5370;50.132;8.626;2024-02-16T05:04:28;8.83;;;4.73;;
10643;SDS011;5370;50.132;8.626;2024-02-16T05:06:54;9.30;;;4.37;;
10643;SDS011;5370;50.132;8.626;2024-02-16T05:09:22;9.67;;;5.27;;
10643;SDS011;5370;50.132;8.626;2024-02-16T05:11:49;13.47;;;5.17;;
10643;SDS011;5370;50.132;8.626;2024-02-16T05:14:16;10.03;;;5.10;;
10643;SDS011;5370;50.132;8.626;2024-02-16T05:16:45;9.03;;;4.83;;
10643;SDS011;5370;50.132;8.626;2024-02-16T05:19:11;11.40;;;4.77;;
10643;SDS011;5370;50.132;8.626;2024-02-16T05:21:37;9.43;;;4.80;;
10643;SDS011;5370;50.132;8.626;2024-02-16T05:24:03;7.53;;;4.93;;
10643;SDS011;5370;50.132;8.626;2024-02-16T05:26:28;9.13;;;5.30;;
10643;SDS011;5370;50.132;8.626;2024-02-16T05:28:54;10.27;;;4.33;;
10643;SDS011;5370;50.132;8.626;2024-02-16T05:31:19;10.47;;;4.97;;
10643;SDS011;5370;50.132;8.626;2024-02-16T05:33:49;11.87;;;4.97;;
10643;SDS011;5370;50.132;8.626;2024-02-16T05:36:18;10.30;;;4.90;;
10643;SDS011;5370;50.132;8.626;2024-02-16T05:38:45;8.70;;;5.40;;
10643;SDS011;5370;50.132;8.626;2024-02-16T05:41:11;8.80;;;4.80;;
10643;SDS011;5370;50.132;8.626;2024-02-16T05:43:37;11.43;;;5.20;;
10643;SDS011;5370;50.132;8.626;2024-02-16T05:46:03;10.23;;;5.60;;
10643;SDS011;5370;50.132;8.626;2024-02-16T05:48:31;11.30;;;5.43;;
10643;SDS011;5370;50.132;8.626;2024-02-16T05:51:00;10.93;;;5.27;;
10643;SDS011;5370;50.132;8.626;2024-02-16T05:53:26;12.90;;;6.03;;
10643;SDS011;5370;50.132;8.626;2024-02-16T05:55:53;11.97;;;5.73;;
10643;SDS011;5370;50.132;8.626;2024-02-16T05:58:18;8.57;;;5.93;;
10643;SDS011;5370;50.132;8.626;2024-02-16T06:00:44;10.67;;;5.67;;
10643;SDS011;5370;50.132;8.626;2024-02-16T06:03:12;7.90;;;5.63;;
10643;SDS011;5370;50.132;8.626;2024-02-16T06:05:38;12.30;;;5.90;;
10643;SDS011;5370;50.132;8.626;2024-02-16T06:08:05;11.97;;;5.77;;
10643;SDS011;5370;50.132;8.626;2024-02-16T06:10:35;9.17;;;5.30;;
10643;SDS011;5370;50.132;8.626;2024-02-16T06:13:00;14.50;;;8.27;;
10643;SDS011;5370;50.132;8.626;2024-02-16T06:15:26;11.77;;;8.07;;
10643;SDS011;5370;50.132;8.626;2024-02-16T06:17:51;14.30;;;6.73;;
10643;SDS011;5370;50.132;8.626;2024-02-16T06:20:17;17.67;;;9.70;;
10643;SDS011;5370;50.132;8.626;2024-02-16T06:22:43;41.83;;;24.00;;
10643;SDS011;5370;50.132;8.626;2024-02-16T06:25:09;19.13;;;11.87;;
10643;SDS011;5370;50.132;8.626;2024-02-16T06:27:34;31.87;;;17.77;;
10643;SDS011;5370;50.132;8.626;2024-02-16T06:30:01;15.27;;;8.93;;
10643;SDS011;5370;50.132;8.626;2024-02-16T06:32:27;14.90;;;7.43;;
10643;SDS011;5370;50.132;8.626;2024-02-16T06:34:53;11.57;;;6.67;;
10643;SDS011;5370;50.132;8.626;2024-02-16T06:37:19;14.70;;;6.13;;
10643;SDS011;5370;50.132;8.626;2024-02-16T06:39:44;14.90;;;6.77;;
10643;SDS011;5370;50.132;8.626;2024-02-16T06:42:10;7.53;;;5.70;;
10643;SDS011;5370;50.132;8.626;2024-02-16T06:44:38;8.07;;;5.13;;
10643;SDS011;5370;50.132;8.626;2024-02-16T06:47:05;10.30;;;6.97;;
10643;SDS011;5370;50.132;8.626;2024-02-16T06:49:31;11.80;;;6.77;;
10643;SDS011;5370;50.132;8.626;2024-02-16T06:51:56;10.00;;;5.83;;
10643;SDS011;5370;50.132;8.626;2024-02-16T06:54:22;13.30;;;6.77;;
10643;SDS011;5370;50.132;8.626;2024-02-16T06:56:49;12.90;;;6.57;;
10643;SDS011;5370;50.132;8.626;2024-02-16T06:59:16;9.47;;;7.00;;
10643;SDS011;5370;50.132;8.626;2024-02-16T07:01:42;11.23;;;6.13;;
10643;SDS011;5370;50.132;8.626;2024-02-16T07:04:07;10.60;;;6.73;;
10643;SDS011;5370;50.132;8.626;2024-02-16T07:06:34;13.20;;;6.60;;
10643;SDS011;5370;50.132;8.626;2024-02-16T07:09:00;16.27;;;6.43;;
10643;SDS011;5370;50.132;8.626;2024-02-16T07:11:25;11.60;;;6.40;;
10643;SDS011;5370;50.132;8.626;2024-02-16T07:13:51;13.93;;;7.50;;
10643;SDS011;5370;50.132;8.626;2024-02-16T07:16:16;12.80;;;7.27;;
10643;SDS011;5370;50.132;8.626;2024-02-16T07:18:43;11.93;;;6.77;;
10643;SDS011;5370;50.132;8.626;2024-02-16T07:21:09;6.50;;;5.80;;
10643;SDS011;5370;50.132;8.626;2024-02-16T07:23:34;9.73;;;6.30;;
10643;SDS011;5370;50.132;8.626;2024-02-16T07:26:00;9.77;;;6.47;;
10643;SDS011;5370;50.132;8.626;2024-02-16T07:28:26;15.60;;;6.83;;
10643;SDS011;5370;50.132;8.626;2024-02-16T07:30:52;10.97;;;5.83;;
10643;SDS011;5370;50.132;8.626;2024-02-16T07:33:18;8.00;;;6.40;;
10643;SDS011;5370;50.132;8.626;2024-02-16T07:35:44;8.20;;;5.90;;
10643;SDS011;5370;50.132;8.626;2024-02-16T07:38:10;12.93;;;6.13;;
10643;SDS011;5370;50.132;8.626;2024-02-16T07:40:36;15.43;;;7.10;;
10643;SDS011;5370;50.132;8.626;2024-02-16T07:43:02;14.67;;;6.97;;
10643;SDS011;5370;50.132;8.626;2024-02-16T07:45:28;12.27;;;6.83;;
10643;SDS011;5370;50.132;8.626;2024-02-16T07:47:53;12.57;;;6.97;;
10643;SDS011;5370;50.132;8.626;2024-02-16T07:50:19;11.50;;;6.10;;
10643;SDS011;5370;50.132;8.626;2024-02-16T07:52:49;11.87;;;6.53;;
10643;SDS011;5370;50.132;8.626;2024-02-16T07:55:15;11.63;;;6.80;;
10643;SDS011;5370;50.132;8.626;2024-02-16T07:57:43;15.17;;;6.77;;
10643;SDS011;5370;50.132;8.626;2024-02-16T08:00:09;13.67;;;6.83;;
10643;SDS011;5370;50.132;8.626;2024-02-16T08:02:36;12.93;;;6.33;;
10643;SDS011;5370;50.132;8.626;2024-02-16T08:05:01;8.80;;;5.90;;
10643;SDS011;5370;50.132;8.626;2024-02-16T08:07:27;13.73;;;6.30;;
10643;SDS011;5370;50.132;8.626;2024-02-16T08:09:53;7.40;;;5.60;;
10643;SDS011;5370;50.132;8.626;2024-02-16T08:12:18;8.53;;;6.47;;
10643;SDS011;5370;50.132;8.626;2024-02-16T08:14:44;8.70;;;6.30;;
10643;SDS011;5370;50.132;8.626;2024-02-16T08:17:11;12.87;;;7.00;;
10643;SDS011;5370;50.132;8.626;2024-02-16T08:19:36;8.70;;;6.40;;
10643;SDS011;5370;50.132;8.626;2024-02-16T08:22:06;13.27;;;6.63;;
10643;SDS011;5370;50.132;8.626;2024-02-16T08:24:34;10.67;;;7.63;;
10643;SDS011;5370;50.132;8.626;2024-02-16T08:27:01;10.90;;;6.87;;
10643;SDS011;5370;50.132;8.626;2024-02-16T08:29:27;9.37;;;6.43;;
10643;SDS011;5370;50.132;8.626;2024-02-16T08:31:52;14.53;;;6.63;;
10643;SDS011;5370;50.132;8.626;2024-02-16T08:34:19;12.63;;;7.03;;
10643;SDS011;5370;50.132;8.626;2024-02-16T08:36:48;11.83;;;7.00;;
10643;SDS011;5370;50.132;8.626;2024-02-16T08:39:14;12.43;;;6.63;;
10643;SDS011;5370;50.132;8.626;2024-02-16T08:41:40;12.10;;;5.60;;
10643;SDS011;5370;50.132;8.626;2024-02-16T08:44:06;13.23;;;6.93;;
10643;SDS011;5370;50.132;8.626;2024-02-16T08:46:35;11.00;;;6.90;;
10643;SDS011;5370;50.132;8.626;2024-02-16T08:49:04;8.47;;;6.70;;
10643;SDS011;5370;50.132;8.626;2024-02-16T08:51:34;10.77;;;6.57;;
10643;SDS011;5370;50.132;8.626;2024-02-16T08:54:00;9.37;;;5.53;;
10643;SDS011;5370;50.132;8.626;2024-02-16T08:56:26;12.70;;;5.70;;
10643;SDS011;5370;50.132;8.626;2024-02-16T08:58:52;10.87;;;6.03;;
10643;SDS011;5370;50.132;8.626;2024-02-16T09:01:18;9.00;;;6.43;;
10643;SDS011;5370;50.132;8.626;2024-02-16T09:03:43;9.20;;;6.57;;
10643;SDS011;5370;50.132;8.626;2024-02-16T09:06:09;10.73;;;6.50;;
10643;SDS011;5370;50.132;8.626;2024-02-16T09:08:35;13.20;;;6.60;;
10643;SDS011;5370;50.132;8.626;2024-02-16T09:11:00;9.60;;;7.00;;
10643;SDS011;5370;50.132;8.626;2024-02-16T09:13:33;12.70;;;6.63;;
10643;SDS011;5370;50.132;8.626;2024-02-16T09:16:01;9.20;;;6.43;;
10643;SDS011;5370;50.132;8.626;2024-02-16T09:18:28;10.80;;;6.60;;
10643;SDS011;5370;50.132;8.626;2024-02-16T09:20:54;10.60;;;6.97;;
10643;SDS011;5370;50.132;8.626;2024-02-16T09:23:20;10.30;;;6.73;;
10643;SDS011;5370;50.132;8.626;2024-02-16T09:25:45;13.33;;;6.23;;
10643;SDS011;5370;50.132;8.626;2024-02-16T09:28:11;12.00;;;6.67;;
10643;SDS011;5370;50.132;8.626;2024-02-16T09:30:37;8.13;;;6.13;;
10643;SDS011;5370;50.132;8.626;2024-02-16T09:33:03;11.30;;;6.63;;
10643;SDS011;5370;50.132;8.626;2024-02-16T09:35:29;12.50;;;6.50;;
10643;SDS011;5370;50.132;8.626;2024-02-16T09:37:54;8.60;;;6.40;;
10643;SDS011;5370;50.132;8.626;2024-02-16T09:40:20;7.17;;;6.47;;
10643;SDS011;5370;50.132;8.626;2024-02-16T09:42:49;9.30;;;6.10;;
10643;SDS011;5370;50.132;8.626;2024-02-16T09:45:15;12.00;;;6.70;;
10643;SDS011;5370;50.132;8.626;2024-02-16T09:47:44;13.47;;;6.50;;
10643;SDS011;5370;50.132;8.626;2024-02-16T09:50:14;11.47;;;7.17;;
10643;SDS011;5370;50.132;8.626;2024-02-16T09:52:40;13.83;;;6.77;;
10643;SDS011;5370;50.132;8.626;2024-02-16T09:55:12;12.47;;;7.33;;
10643;SDS011;5370;50.132;8.626;2024-02-16T09:57:38;10.43;;;6.63;;
10643;SDS011;5370;50.132;8.626;2024-02-16T10:00:04;15.27;;;6.37;;
10643;SDS011;5370;50.132;8.626;2024-02-16T10:02:42;10.97;;;6.63;;
10643;SDS011;5370;50.132;8.626;2024-02-16T10:05:12;9.70;;;5.93;;
10643;SDS011;5370;50.132;8.626;2024-02-16T10:07:42;9.60;;;6.22;;
10643;SDS011;5370;50.132;8.626;2024-02-16T10:10:21;14.18;;;5.43;;
10643;SDS011;5370;50.132;8.626;2024-02-16T10:13:00;15.20;;;9.90;;
10643;SDS011;5370;50.132;8.626;2024-02-16T10:15:30;10.05;;;5.93;;
10643;SDS011;5370;50.132;8.626;2024-02-16T10:17:57;7.60;;;6.38;;
10643;SDS011;5370;50.132;8.626;2024-02-16T10:20:26;10.57;;;5.97;;
10643;SDS011;5370;50.132;8.626;2024-02-16T10:23:02;15.02;;;6.43;;
10643;SDS011;5370;50.132;8.626;2024-02-16T10:25:28;8.88;;;6.35;;
10643;SDS011;5370;50.132;8.626;2024-02-16T10:27:54;9.98;;;6.03;;
10643;SDS011;5370;50.132;8.626;2024-02-16T10:30:22;9.52;;;5.97;;
10643;SDS011;5370;50.132;8.626;2024-02-16T10:32:57;15.48;;;6.47;;
10643;SDS011;5370;50.132;8.626;2024-02-16T10:35:24;8.40;;;6.03;;
10643;SDS011;5370;50.132;8.626;2024-02-16T10:37:51;10.70;;;5.90;;
10643;SDS011;5370;50.132;8.626;2024-02-16T10:40:18;8.05;;;5.78;;
10643;SDS011;5370;50.132;8.626;2024-02-16T10:42:45;7.13;;;5.30;;
10643;SDS011;5370;50.132;8.626;2024-02-16T10:45:13;9.38;;;5.57;;
10643;SDS011;5370;50.132;8.626;2024-02-16T10:47:38;8.48;;;6.13;;
10643;SDS011;5370;50.132;8.626;2024-02-16T10:50:04;14.50;;;5.57;;
10643;SDS011;5370;50.132;8.626;2024-02-16T10:52:31;6.85;;;4.75;;
10643;SDS011;5370;50.132;8.626;2024-02-16T10:54:57;7.20;;;5.00;;
10643;SDS011;5370;50.132;8.626;2024-02-16T10:57:24;10.90;;;5.40;;
10643;SDS011;5370;50.132;8.626;2024-02-16T10:59:52;9.02;;;5.25;;
10643;SDS011;5370;50.132;8.626;2024-02-16T11:02:19;8.68;;;5.20;;
10643;SDS011;5370;50.132;8.626;2024-02-16T11:04:45;11.73;;;4.80;;
10643;SDS011;5370;50.132;8.626;2024-02-16T11:07:16;7.18;;;4.85;;
10643;SDS011;5370;50.132;8.626;2024-02-16T11:09:43;11.60;;;4.93;;
10643;SDS011;5370;50.132;8.626;2024-02-16T11:12:11;13.50;;;4.53;;
10643;SDS011;5370;50.132;8.626;2024-02-16T11:14:38;10.25;;;5.03;;
10643;SDS011;5370;50.132;8.626;2024-02-16T11:17:12;7.38;;;4.40;;
10643;SDS011;5370;50.132;8.626;2024-02-16T11:19:42;8.52;;;4.80;;
10643;SDS011;5370;50.132;8.626;2024-02-16T11:22:09;7.47;;;4.82;;
10643;SDS011;5370;50.132;8.626;2024-02-16T11:24:42;11.05;;;5.07;;
10643;SDS011;5370;50.132;8.626;2024-02-16T11:27:09;8.30;;;4.55;;
10643;SDS011;5370;50.132;8.626;2024-02-16T11:29:35;10.15;;;5.10;;
10643;SDS011;5370;50.132;8.626;2024-02-16T11:32:03;13.48;;;4.95;;
10643;SDS011;5370;50.132;8.626;2024-02-16T11:34:32;10.10;;;4.82;;
10643;SDS011;5370;50.132;8.626;2024-02-16T11:37:00;6.57;;;4.38;;
10643;SDS011;5370;50.132;8.626;2024-02-16T11:39:27;22.83;;;4.70;;
10643;SDS011;5370;50.132;8.626;2024-02-16T11:42:07;8.75;;;4.30;;
10643;SDS011;5370;50.132;8.626;2024-02-16T11:44:38;8.77;;;4.53;;
10643;SDS011;5370;50.132;8.626;2024-02-16T11:47:05;10.35;;;5.13;;
10643;SDS011;5370;50.132;8.626;2024-02-16T11:49:35;10.20;;;4.55;;
10643;SDS011;5370;50.132;8.626;2024-02-16T11:52:01;10.48;;;4.70;;
10643;SDS011;5370;50.132;8.626;2024-02-16T11:54:29;10.80;;;4.18;;
10643;SDS011;5370;50.132;8.626;2024-02-16T11:56:56;7.32;;;4.28;;
10643;SDS011;5370;50.132;8.626;2024-02-16T11:59:22;9.40;;;5.07;;
10643;SDS011;5370;50.132;8.626;2024-02-16T12:01:48;7.00;;;4.60;;
10643;SDS011;5370;50.132;8.626;2024-02-16T12:04:21;8.88;;;4.07;;
10643;SDS011;5370;50.132;8.626;2024-02-16T12:06:52;6.65;;;4.43;;
10643;SDS011;5370;50.132;8.626;2024-02-16T12:09:21;7.43;;;4.28;;
10643;SDS011;5370;50.132;8.626;2024-02-16T12:11:50;7.28;;;4.47;;
10643;SDS011;5370;50.132;8.626;2024-02-16T12:14:22;15.02;;;5.57;;
10643;SDS011;5370;50.132;8.626;2024-02-16T12:16:49;5.70;;;4.13;;
10643;SDS011;5370;50.132;8.626;2024-02-16T12:19:20;6.82;;;4.20;;
10643;SDS011;5370;50.132;8.626;2024-02-16T12:21:53;5.43;;;3.90;;
10643;SDS011;5370;50.132;8.626;2024-02-16T12:24:22;7.10;;;4.30;;
10643;SDS011;5370;50.132;8.626;2024-02-16T12:26:48;7.07;;;4.22;;
10643;SDS011;5370;50.132;8.626;2024-02-16T12:29:14;5.25;;;3.97;;
10643;SDS011;5370;50.132;8.626;2024-02-16T12:31:41;7.82;;;4.03;;
10643;SDS011;5370;50.132;8.626;2024-02-16T12:34:08;5.20;;;4.10;;
10643;SDS011;5370;50.132;8.626;2024-02-16T12:36:34;6.20;;;4.43;;
10643;SDS011;5370;50.132;8.626;2024-02-16T12:39:00;6.57;;;4.00;;
10643;SDS011;5370;50.132;8.626;2024-02-16T12:41:28;7.75;;;4.07;;
10643;SDS011;5370;50.132;8.626;2024-02-16T12:43:57;10.13;;;3.95;;
10643;SDS011;5370;50.132;8.626;2024-02-16T12:46:23;7.03;;;4.00;;
10643;SDS011;5370;50.132;8.626;2024-02-16T12:48:53;5.15;;;3.35;;
10643;SDS011;5370;50.132;8.626;2024-02-16T12:51:18;6.68;;;4.40;;
10643;SDS011;5370;50.132;8.626;2024-02-16T12:53:44;5.45;;;3.40;;
10643;SDS011;5370;50.132;8.626;2024-02-16T12:56:10;6.20;;;3.40;;
10643;SDS011;5370;50.132;8.626;2024-02-16T12:58:36;7.43;;;2.80;;
10643;SDS011;5370;50.132;8.626;2024-02-16T13:01:05;8.65;;;3.00;;
10643;SDS011;5370;50.132;8.626;2024-02-16T13:03:34;8.75;;;2.83;;
10643;SDS011;5370;50.132;8.626;2024-02-16T13:06:00;3.65;;;2.95;;
10643;SDS011;5370;50.132;8.626;2024-02-16T13:08:27;14.30;;;3.78;;
10643;SDS011;5370;50.132;8.626;2024-02-16T13:10:53;15.07;;;2.85;;
10643;SDS011;5370;50.132;8.626;2024-02-16T13:13:19;11.10;;;3.50;;
10643;SDS011;5370;50.132;8.626;2024-02-16T13:15:45;5.18;;;2.35;;
10643;SDS011;5370;50.132;8.626;2024-02-16T13:18:12;5.85;;;2.67;;
10643;SDS011;5370;50.132;8.626;2024-02-16T13:20:41;5.80;;;2.83;;
10643;SDS011;5370;50.132;8.626;2024-02-16T13:23:08;8.45;;;2.45;;
10643;SDS011;5370;50.132;8.626;2024-02-16T13:25:34;7.68;;;2.55;;
10643;SDS011;5370;50.132;8.626;2024-02-16T13:28:00;6.68;;;2.97;;
10643;SDS011;5370;50.132;8.626;2024-02-16T13:30:26;6.72;;;2.72;;
10643;SDS011;5370;50.132;8.626;2024-02-16T13:32:52;6.45;;;2.90;;
10643;SDS011;5370;50.132;8.626;2024-02-16T13:35:18;13.05;;;2.67;;
10643;SDS011;5370;50.132;8.626;2024-02-16T13:37:44;6.65;;;2.70;;
10643;SDS011;5370;50.132;8.626;2024-02-16T13:40:09;2.63;;;2.03;;
10643;SDS011;5370;50.132;8.626;2024-02-16T13:42:40;7.68;;;2.65;;
10643;SDS011;5370;50.132;8.626;2024-02-16T13:45:06;5.65;;;2.65;;
10643;SDS011;5370;50.132;8.626;2024-02-16T13:47:36;5.63;;;2.28;;
10643;SDS011;5370;50.132;8.626;2024-02-16T13:50:01;6.55;;;2.70;;
10643;SDS011;5370;50.132;8.626;2024-02-16T13:52:27;4.82;;;2.13;;
10643;SDS011;5370;50.132;8.626;2024-02-16T13:54:53;8.07;;;2.67;;
10643;SDS011;5370;50.132;8.626;2024-02-16T13:57:19;7.05;;;2.38;;
10643;SDS011;5370;50.132;8.626;2024-02-16T13:59:45;36.47;;;22.30;;
10643;SDS011;5370;50.132;8.626;2024-02-16T14:02:11;43.53;;;26.20;;
10643;SDS011;5370;50.132;8.626;2024-02-16T14:04:38;52.10;;;33.88;;
10643;SDS011;5370;50.132;8.626;2024-02-16T14:07:04;23.92;;;16.55;;
10643;SDS011;5370;50.132;8.626;2024-02-16T14:09:30;44.33;;;26.02;;
10643;SDS011;5370;50.132;8.626;2024-02-16T14:11:55;51.00;;;29.77;;
10643;SDS011;5370;50.132;8.626;2024-02-16T14:14:23;6.00;;;2.85;;
10643;SDS011;5370;50.132;8.626;2024-02-16T14:16:49;21.40;;;8.70;;
10643;SDS011;5370;50.132;8.626;2024-02-16T14:19:15;19.83;;;12.40;;
10643;SDS011;5370;50.132;8.626;2024-02-16T14:21:42;19.98;;;9.93;;
10643;SDS011;5370;50.132;8.626;2024-02-16T14:24:08;5.55;;;2.92;;
10643;SDS011;5370;50.132;8.626;2024-02-16T14:26:35;128.18;;;72.93;;
10643;SDS011;5370;50.132;8.626;2024-02-16T14:29:01;134.80;;;94.90;;
10643;SDS011;5370;50.132;8.626;2024-02-16T14:31:27;255.50;;;186.63;;
10643;SDS011;5370;50.132;8.626;2024-02-16T14:33:52;210.57;;;149.50;;
10643;SDS011;5370;50.132;8.626;2024-02-16T14:36:18;213.45;;;107.15;;
10643;SDS011;5370;50.132;8.626;2024-02-16T14:38:44;532.78;;;347.35;;
10643;SDS011;5370;50.132;8.626;2024-02-16T14:41:09;156.10;;;79.95;;
10643;SDS011;5370;50.132;8.626;2024-02-16T14:43:35;144.15;;;76.35;;
10643;SDS011;5370;50.132;8.626;2024-02-16T14:46:00;73.85;;;40.17;;